Monte — V2FS2 — position and weather

sailwx.info

Track history (hours):
 
Tides and Currents Weather Stations Pressure Air Temp Water Temp Dewpoint Dewpoint Depression Visibility Wind Speed Wind Dir Waves Ship Positions

Monte

Last reported at 2016-Feb-12 15:32 UTC. Time now 2016-Feb-12 16:09 UTC.
Position N 38°31' W 008°52'.

Length 104 m; draft 3.9 m.

Type: Cargo ship. MMSI: 305777000.

Date/timePositionNaut miles runAvg speedWind from/ knotsBaromVisibWave heightAir tempDewpointWater temp
2016-Feb-12 15:32N 38°31' W 008°52'0 0.0
2016-Feb-12 14:32N 38°31' W 008°52'0 0.0
2016-Feb-12 13:32N 38°31' W 008°52'0 0.0
2016-Feb-12 12:32N 38°31' W 008°52'0 0.0
2016-Feb-12 11:32N 38°31' W 008°52'0 0.0
2016-Feb-12 10:32N 38°31' W 008°52'0 0.0
2016-Feb-12 09:32N 38°31' W 008°52'0 0.0
2016-Feb-12 08:32N 38°31' W 008°52'0 0.0
2016-Feb-12 07:32N 38°31' W 008°52'0 0.0
2016-Feb-12 06:32N 38°31' W 008°52'0 0.0
2016-Feb-12 05:26N 38°31' W 008°52'0 0.0
2016-Feb-12 04:32N 38°31' W 008°52'0 0.0
2016-Feb-12 03:32N 38°31' W 008°52'0 0.0
2016-Feb-12 02:32N 38°31' W 008°52'0 0.0
2016-Feb-12 01:32N 38°31' W 008°52'0 0.0
2016-Feb-12 00:32N 38°31' W 008°52'0 0.0
2016-Feb-11 23:20N 38°31' W 008°52'0 0.0
2016-Feb-11 22:32N 38°31' W 008°52'0 0.0
2016-Feb-11 21:29N 38°31' W 008°52'2 1.8
2016-Feb-11 20:32N 38°31' W 008°54'9 9.5
2016-Feb-11 19:33N 38°24' W 009°02'1010.3
2016-Feb-11 18:33N 38°21' W 009°15'1110.5
2016-Feb-11 17:33N 38°27' W 009°26'1111.0
2016-Feb-11 16:33N 38°34' W 009°36'1010.2
2016-Feb-11 15:33N 38°43' W 009°43'1010.4
2016-Feb-11 14:33N 38°53' W 009°44'1010.5
2016-Feb-11 13:33N 39°04' W 009°44'1110.8
2016-Feb-11 12:33N 39°15' W 009°44'1111.0
2016-Feb-11 11:33N 39°26' W 009°44'1110.3
2016-Feb-11 10:32N 39°36' W 009°42'1010.0
2016-Feb-11 09:32N 39°46' W 009°39'10 9.9
2016-Feb-11 08:32N 39°55' W 009°35'10 9.7
2016-Feb-11 07:32N 40°05' W 009°31'10 9.7
2016-Feb-11 06:32N 40°14' W 009°27'9 9.4
2016-Feb-11 05:32N 40°23' W 009°24'8 8.1
2016-Feb-11 04:32N 40°31' W 009°21'9 9.2
2016-Feb-11 03:32N 40°40' W 009°18'8 8.5
2016-Feb-11 02:33N 40°48' W 009°15'8 8.3
2016-Feb-11 01:33N 40°55' W 009°10'8 8.2
2016-Feb-11 00:33N 40°60' W 009°01'8 8.4
2016-Feb-10 23:33N 41°04' W 008°52'8 7.9
2016-Feb-10 22:33N 41°09' W 008°44'3 2.7
2016-Feb-10 21:32N 41°11' W 008°41'0 0.0
2016-Feb-10 20:32N 41°11' W 008°41'0 0.0
2016-Feb-10 19:33N 41°11' W 008°41'0 0.0
2016-Feb-10 18:33N 41°11' W 008°41'0 0.0
2016-Feb-10 17:33N 41°11' W 008°41'0 0.0
2016-Feb-10 16:33N 41°11' W 008°41'0 0.0
2016-Feb-10 15:34N 41°11' W 008°41'0 0.0
2016-Feb-10 14:33N 41°11' W 008°41'0 0.0
2016-Feb-10 13:33N 41°11' W 008°41'0 0.0
2016-Feb-10 12:34N 41°11' W 008°41'0 0.0
2016-Feb-10 11:34N 41°11' W 008°41'0 0.0
2016-Feb-10 10:33N 41°11' W 008°41'0 0.0
2016-Feb-10 09:33N 41°11' W 008°41'0 0.0
2016-Feb-10 08:33N 41°11' W 008°41'0 0.0
2016-Feb-10 07:32N 41°11' W 008°41'0 0.0
2016-Feb-10 06:33N 41°11' W 008°41'0 0.0
2016-Feb-10 05:32N 41°11' W 008°41'0 0.0
2016-Feb-10 04:33N 41°11' W 008°41'0 0.0
2016-Feb-10 03:34N 41°11' W 008°41'0 0.0
2016-Feb-10 02:32N 41°11' W 008°41'0 0.0
2016-Feb-10 01:33N 41°11' W 008°41'0 0.0
2016-Feb-10 00:33N 41°11' W 008°41'0 0.0
2016-Feb-09 23:32N 41°11' W 008°41'0 0.0
2016-Feb-09 22:33N 41°11' W 008°41'0 0.0
2016-Feb-09 21:33N 41°11' W 008°41'0 0.0
2016-Feb-09 20:32N 41°11' W 008°41'0 0.0
2016-Feb-09 19:32N 41°11' W 008°41'0 0.0
2016-Feb-09 18:33N 41°11' W 008°41'0 0.0
2016-Feb-09 17:33N 41°11' W 008°41'0 0.0
2016-Feb-09 16:32N 41°11' W 008°41'0 0.0
2016-Feb-09 15:33N 41°11' W 008°41'0 0.0
2016-Feb-09 14:32N 41°11' W 008°41'0 0.0
2016-Feb-09 13:33N 41°11' W 008°41'0 0.0
2016-Feb-09 12:32N 41°11' W 008°41'0 0.0
2016-Feb-09 11:33N 41°11' W 008°41'0 0.0
2016-Feb-09 10:33N 41°11' W 008°41'0 0.0
2016-Feb-09 09:33N 41°11' W 008°41'0 0.0
2016-Feb-09 08:32N 41°11' W 008°41'0 0.0
2016-Feb-09 07:33N 41°11' W 008°41'0 0.0
2016-Feb-09 06:33N 41°11' W 008°41'0 0.0
2016-Feb-09 05:32N 41°11' W 008°41'0 0.0
2016-Feb-09 04:32N 41°11' W 008°41'0 0.0
2016-Feb-09 03:32N 41°11' W 008°41'0 0.0
2016-Feb-09 02:33N 41°11' W 008°41'0 0.0
2016-Feb-09 01:33N 41°11' W 008°41'0 0.0
2016-Feb-09 00:31N 41°11' W 008°41'0 0.0
2016-Feb-08 23:33N 41°11' W 008°41'0 0.0
2016-Feb-08 22:33N 41°11' W 008°41'0 0.0
2016-Feb-08 21:33N 41°11' W 008°41'0 0.0
2016-Feb-08 20:33N 41°11' W 008°41'0 0.0
2016-Feb-08 19:32N 41°11' W 008°41'0 0.0
2016-Feb-08 18:34N 41°11' W 008°41'0 0.0
2016-Feb-08 17:33N 41°11' W 008°41'0 0.0
2016-Feb-08 16:32N 41°11' W 008°41'0 0.0
2016-Feb-08 15:33N 41°11' W 008°41'0 0.0
2016-Feb-08 14:33N 41°11' W 008°41'0 0.0
2016-Feb-08 13:33N 41°11' W 008°41'0 0.0
2016-Feb-08 12:32N 41°11' W 008°41'0 0.0
2016-Feb-08 11:33N 41°11' W 008°41'0 0.0
2016-Feb-08 10:33N 41°11' W 008°41'0 0.0
2016-Feb-08 09:33N 41°11' W 008°41'0 0.0
2016-Feb-08 08:33N 41°11' W 008°41'0 0.0
2016-Feb-08 07:32N 41°11' W 008°41'0 0.0
2016-Feb-08 06:33N 41°11' W 008°41'4 4.0
2016-Feb-08 05:33N 41°09' W 008°46'3 3.1
2016-Feb-08 04:32N 41°10' W 008°50'0 0.2
2016-Feb-08 03:33N 41°10' W 008°50'0 0.5
2016-Feb-08 02:32N 41°10' W 008°49'1 0.8
2016-Feb-08 01:33N 41°11' W 008°49'1 0.6
2016-Feb-08 00:33N 41°11' W 008°48'1 0.7
2016-Feb-07 23:34N 41°11' W 008°47'8 7.7
2016-Feb-07 22:32N 41°18' W 008°52'10 9.9
2016-Feb-07 21:32N 41°27' W 008°59'1010.4
2016-Feb-07 20:32N 41°35' W 009°07'11 9.7
2016-Feb-07 19:26N 41°44' W 009°14'8 8.6
2016-Feb-07 18:29N 41°52' W 009°20'8 8.6
2016-Feb-07 17:32N 41°59' W 009°25'  
2016-Feb-03 19:17N 50°31' W 000°05'6 7.7
2016-Feb-03 18:32N 50°33' E 000°04'7 7.5
2016-Feb-03 17:33N 50°34' E 000°15'34 7.8
2016-Feb-03 13:10N 50°51' E 001°02'6 9.6
2016-Feb-03 12:33N 50°55' E 001°09'9 9.4
2016-Feb-03 11:33N 51°01' E 001°21'9 9.3
2016-Feb-03 10:33N 51°07' E 001°32'9 8.9
2016-Feb-03 09:34N 51°13' E 001°43'8 8.5
2016-Feb-03 08:34N 51°19' E 001°51'8 8.4
2016-Feb-03 07:33N 51°26' E 001°59'10 8.8
2016-Feb-03 06:24N 51°34' E 002°09'62 7.9
2016-Feb-02 22:32N 52°03' E 003°39'5 5.1
2016-Feb-02 21:33N 52°03' E 003°47'5 5.5
2016-Feb-02 20:33N 52°03' E 003°56'5 4.8
2016-Feb-02 19:33N 51°60' E 004°02'9 8.7
2016-Feb-02 18:34N 51°55' E 004°14'9 9.1
2016-Feb-02 17:34N 51°50' E 004°26'9 8.6
2016-Feb-02 16:33N 51°45' E 004°38'4 4.2
2016-Feb-02 15:33N 51°41' E 004°36'  
Track history (hours):
 
Tides and Currents Weather Stations Pressure Air Temp Water Temp Dewpoint Dewpoint Depression Visibility Wind Speed Wind Dir Waves Ship Positions

Monte

Last reported at 2016-Feb-12 15:32 UTC. Time now 2016-Feb-12 16:09 UTC.
Position N 38°31' W 008°52'.

Length 104 m; draft 3.9 m.

Type: Cargo ship. MMSI: 305777000.

Date/timePositionNaut miles runAvg speedWind from/ knotsBaromVisibWave heightAir tempDewpointWater temp
2016-Feb-12 15:32N 38°31' W 008°52'0 0.0
2016-Feb-12 14:32N 38°31' W 008°52'0 0.0
2016-Feb-12 13:32N 38°31' W 008°52'0 0.0
2016-Feb-12 12:32N 38°31' W 008°52'0 0.0
2016-Feb-12 11:32N 38°31' W 008°52'0 0.0
2016-Feb-12 10:32N 38°31' W 008°52'0 0.0
2016-Feb-12 09:32N 38°31' W 008°52'0 0.0
2016-Feb-12 08:32N 38°31' W 008°52'0 0.0
2016-Feb-12 07:32N 38°31' W 008°52'0 0.0
2016-Feb-12 06:32N 38°31' W 008°52'0 0.0
2016-Feb-12 05:26N 38°31' W 008°52'0 0.0
2016-Feb-12 04:32N 38°31' W 008°52'0 0.0
2016-Feb-12 03:32N 38°31' W 008°52'0 0.0
2016-Feb-12 02:32N 38°31' W 008°52'0 0.0
2016-Feb-12 01:32N 38°31' W 008°52'0 0.0
2016-Feb-12 00:32N 38°31' W 008°52'0 0.0
2016-Feb-11 23:20N 38°31' W 008°52'0 0.0
2016-Feb-11 22:32N 38°31' W 008°52'0 0.0
2016-Feb-11 21:29N 38°31' W 008°52'2 1.8
2016-Feb-11 20:32N 38°31' W 008°54'9 9.5
2016-Feb-11 19:33N 38°24' W 009°02'1010.3
2016-Feb-11 18:33N 38°21' W 009°15'1110.5
2016-Feb-11 17:33N 38°27' W 009°26'1111.0
2016-Feb-11 16:33N 38°34' W 009°36'1010.2
2016-Feb-11 15:33N 38°43' W 009°43'1010.4
2016-Feb-11 14:33N 38°53' W 009°44'1010.5
2016-Feb-11 13:33N 39°04' W 009°44'1110.8
2016-Feb-11 12:33N 39°15' W 009°44'1111.0
2016-Feb-11 11:33N 39°26' W 009°44'1110.3
2016-Feb-11 10:32N 39°36' W 009°42'1010.0
2016-Feb-11 09:32N 39°46' W 009°39'10 9.9
2016-Feb-11 08:32N 39°55' W 009°35'10 9.7
2016-Feb-11 07:32N 40°05' W 009°31'10 9.7
2016-Feb-11 06:32N 40°14' W 009°27'9 9.4
2016-Feb-11 05:32N 40°23' W 009°24'8 8.1
2016-Feb-11 04:32N 40°31' W 009°21'9 9.2
2016-Feb-11 03:32N 40°40' W 009°18'8 8.5
2016-Feb-11 02:33N 40°48' W 009°15'8 8.3
2016-Feb-11 01:33N 40°55' W 009°10'8 8.2
2016-Feb-11 00:33N 40°60' W 009°01'8 8.4
2016-Feb-10 23:33N 41°04' W 008°52'8 7.9
2016-Feb-10 22:33N 41°09' W 008°44'3 2.7
2016-Feb-10 21:32N 41°11' W 008°41'0 0.0
2016-Feb-10 20:32N 41°11' W 008°41'0 0.0
2016-Feb-10 19:33N 41°11' W 008°41'0 0.0
2016-Feb-10 18:33N 41°11' W 008°41'0 0.0
2016-Feb-10 17:33N 41°11' W 008°41'0 0.0
2016-Feb-10 16:33N 41°11' W 008°41'0 0.0
2016-Feb-10 15:34N 41°11' W 008°41'0 0.0
2016-Feb-10 14:33N 41°11' W 008°41'0 0.0
2016-Feb-10 13:33N 41°11' W 008°41'0 0.0
2016-Feb-10 12:34N 41°11' W 008°41'0 0.0
2016-Feb-10 11:34N 41°11' W 008°41'0 0.0
2016-Feb-10 10:33N 41°11' W 008°41'0 0.0
2016-Feb-10 09:33N 41°11' W 008°41'0 0.0
2016-Feb-10 08:33N 41°11' W 008°41'0 0.0
2016-Feb-10 07:32N 41°11' W 008°41'0 0.0
2016-Feb-10 06:33N 41°11' W 008°41'0 0.0
2016-Feb-10 05:32N 41°11' W 008°41'0 0.0
2016-Feb-10 04:33N 41°11' W 008°41'0 0.0
2016-Feb-10 03:34N 41°11' W 008°41'0 0.0
2016-Feb-10 02:32N 41°11' W 008°41'0 0.0
2016-Feb-10 01:33N 41°11' W 008°41'0 0.0
2016-Feb-10 00:33N 41°11' W 008°41'0 0.0
2016-Feb-09 23:32N 41°11' W 008°41'0 0.0
2016-Feb-09 22:33N 41°11' W 008°41'0 0.0
2016-Feb-09 21:33N 41°11' W 008°41'0 0.0
2016-Feb-09 20:32N 41°11' W 008°41'0 0.0
2016-Feb-09 19:32N 41°11' W 008°41'0 0.0
2016-Feb-09 18:33N 41°11' W 008°41'0 0.0
2016-Feb-09 17:33N 41°11' W 008°41'0 0.0
2016-Feb-09 16:32N 41°11' W 008°41'0 0.0
2016-Feb-09 15:33N 41°11' W 008°41'0 0.0
2016-Feb-09 14:32N 41°11' W 008°41'0 0.0
2016-Feb-09 13:33N 41°11' W 008°41'0 0.0
2016-Feb-09 12:32N 41°11' W 008°41'0 0.0
2016-Feb-09 11:33N 41°11' W 008°41'0 0.0
2016-Feb-09 10:33N 41°11' W 008°41'0 0.0
2016-Feb-09 09:33N 41°11' W 008°41'0 0.0
2016-Feb-09 08:32N 41°11' W 008°41'0 0.0
2016-Feb-09 07:33N 41°11' W 008°41'0 0.0
2016-Feb-09 06:33N 41°11' W 008°41'0 0.0
2016-Feb-09 05:32N 41°11' W 008°41'0 0.0
2016-Feb-09 04:32N 41°11' W 008°41'0 0.0
2016-Feb-09 03:32N 41°11' W 008°41'0 0.0
2016-Feb-09 02:33N 41°11' W 008°41'0 0.0
2016-Feb-09 01:33N 41°11' W 008°41'0 0.0
2016-Feb-09 00:31N 41°11' W 008°41'0 0.0
2016-Feb-08 23:33N 41°11' W 008°41'0 0.0
2016-Feb-08 22:33N 41°11' W 008°41'0 0.0
2016-Feb-08 21:33N 41°11' W 008°41'0 0.0
2016-Feb-08 20:33N 41°11' W 008°41'0 0.0
2016-Feb-08 19:32N 41°11' W 008°41'0 0.0
2016-Feb-08 18:34N 41°11' W 008°41'0 0.0
2016-Feb-08 17:33N 41°11' W 008°41'0 0.0
2016-Feb-08 16:32N 41°11' W 008°41'0 0.0
2016-Feb-08 15:33N 41°11' W 008°41'0 0.0
2016-Feb-08 14:33N 41°11' W 008°41'0 0.0
2016-Feb-08 13:33N 41°11' W 008°41'0 0.0
2016-Feb-08 12:32N 41°11' W 008°41'0 0.0
2016-Feb-08 11:33N 41°11' W 008°41'0 0.0
2016-Feb-08 10:33N 41°11' W 008°41'0 0.0
2016-Feb-08 09:33N 41°11' W 008°41'0 0.0
2016-Feb-08 08:33N 41°11' W 008°41'0 0.0
2016-Feb-08 07:32N 41°11' W 008°41'0 0.0
2016-Feb-08 06:33N 41°11' W 008°41'4 4.0
2016-Feb-08 05:33N 41°09' W 008°46'3 3.1
2016-Feb-08 04:32N 41°10' W 008°50'0 0.2
2016-Feb-08 03:33N 41°10' W 008°50'0 0.5
2016-Feb-08 02:32N 41°10' W 008°49'1 0.8
2016-Feb-08 01:33N 41°11' W 008°49'1 0.6
2016-Feb-08 00:33N 41°11' W 008°48'1 0.7
2016-Feb-07 23:34N 41°11' W 008°47'8 7.7
2016-Feb-07 22:32N 41°18' W 008°52'10 9.9
2016-Feb-07 21:32N 41°27' W 008°59'1010.4
2016-Feb-07 20:32N 41°35' W 009°07'11 9.7
2016-Feb-07 19:26N 41°44' W 009°14'8 8.6
2016-Feb-07 18:29N 41°52' W 009°20'8 8.6
2016-Feb-07 17:32N 41°59' W 009°25'  
2016-Feb-03 19:17N 50°31' W 000°05'6 7.7
2016-Feb-03 18:32N 50°33' E 000°04'7 7.5
2016-Feb-03 17:33N 50°34' E 000°15'34 7.8
2016-Feb-03 13:10N 50°51' E 001°02'6 9.6
2016-Feb-03 12:33N 50°55' E 001°09'9 9.4
2016-Feb-03 11:33N 51°01' E 001°21'9 9.3
2016-Feb-03 10:33N 51°07' E 001°32'9 8.9
2016-Feb-03 09:34N 51°13' E 001°43'8 8.5
2016-Feb-03 08:34N 51°19' E 001°51'8 8.4
2016-Feb-03 07:33N 51°26' E 001°59'10 8.8
2016-Feb-03 06:24N 51°34' E 002°09'62 7.9
2016-Feb-02 22:32N 52°03' E 003°39'5 5.1
2016-Feb-02 21:33N 52°03' E 003°47'5 5.5
2016-Feb-02 20:33N 52°03' E 003°56'5 4.8
2016-Feb-02 19:33N 51°60' E 004°02'9 8.7
2016-Feb-02 18:34N 51°55' E 004°14'9 9.1
2016-Feb-02 17:34N 51°50' E 004°26'9 8.6
2016-Feb-02 16:33N 51°45' E 004°38'4 4.2
2016-Feb-02 15:33N 51°41' E 004°36'  

Dump ship's entire track history